createdAt,value
2023-05-05T00:01:33.360Z,102740.16
2023-05-05T00:04:00.809Z,102736.03
2023-05-05T00:06:31.468Z,102735.53
2023-05-05T00:08:58.767Z,102743.03
2023-05-05T00:11:26.203Z,102740.88
2023-05-05T00:13:53.428Z,102745.59
2023-05-05T00:16:20.844Z,102741.16
2023-05-05T00:18:48.115Z,102746.47
2023-05-05T00:21:15.795Z,102753.97
2023-05-05T00:23:43.004Z,102743.31
2023-05-05T00:26:10.174Z,102748.00
2023-05-05T00:28:38.538Z,102746.72
2023-05-05T00:31:05.884Z,102750.53
2023-05-05T00:33:33.132Z,102741.78
2023-05-05T00:36:00.637Z,102749.09
2023-05-05T00:38:27.966Z,102740.81
2023-05-05T00:40:55.370Z,102749.34
2023-05-05T00:43:22.629Z,102743.94
2023-05-05T00:45:55.782Z,102748.78
2023-05-05T00:48:25.590Z,102742.41
2023-05-05T00:50:52.959Z,102746.44
2023-05-05T00:53:20.322Z,102749.59
2023-05-05T00:55:47.675Z,102732.84
2023-05-05T00:58:15.072Z,102738.13
2023-05-05T01:00:42.619Z,102743.88
2023-05-05T01:03:09.979Z,102743.03
2023-05-05T01:05:51.560Z,102738.59
2023-05-05T01:08:27.701Z,102735.16
2023-05-05T01:11:01.340Z,102741.25
2023-05-05T01:13:42.909Z,102751.19
2023-05-05T01:16:24.094Z,102745.09
2023-05-05T01:19:11.582Z,102750.38
2023-05-05T01:21:41.420Z,102751.63
2023-05-05T01:24:08.616Z,102754.16
2023-05-05T01:26:36.036Z,102752.88
2023-05-05T01:29:12.195Z,102754.16
2023-05-05T01:32:08.742Z,102753.88
2023-05-05T01:34:39.184Z,102753.88
2023-05-05T01:37:06.372Z,102760.13
2023-05-05T01:39:35.074Z,102757.19
2023-05-05T01:42:04.913Z,102758.31
2023-05-05T01:44:33.873Z,102752.50
2023-05-05T01:47:01.567Z,102751.53
2023-05-05T01:49:29.204Z,102752.56
2023-05-05T01:51:58.973Z,102760.47
2023-05-05T01:54:27.240Z,102758.78
2023-05-05T01:56:57.395Z,102752.34
2023-05-05T01:59:25.642Z,102756.16
2023-05-05T02:01:53.327Z,102754.16
2023-05-05T02:04:22.917Z,102765.06
2023-05-05T02:06:53.233Z,102761.00
2023-05-05T02:09:21.631Z,102756.59
2023-05-05T02:11:49.194Z,102758.16
2023-05-05T02:14:17.173Z,102761.66
2023-05-05T02:16:44.427Z,102761.34
2023-05-05T02:19:12.333Z,102763.56
2023-05-05T02:21:39.682Z,102765.78
2023-05-05T02:24:07.883Z,102767.88
2023-05-05T02:26:38.705Z,102766.44
2023-05-05T02:29:08.045Z,102765.56
2023-05-05T02:31:39.115Z,102765.63
2023-05-05T02:34:07.471Z,102757.69
2023-05-05T02:36:38.007Z,102767.88
2023-05-05T02:39:14.476Z,102760.59
2023-05-05T02:41:44.409Z,102773.59
2023-05-05T02:44:23.397Z,102770.13
2023-05-05T02:46:51.380Z,102766.13
2023-05-05T02:49:19.421Z,102771.03
2023-05-05T02:51:46.893Z,102775.94
2023-05-05T02:54:23.656Z,102773.78
2023-05-05T02:56:53.927Z,102770.06
2023-05-05T02:59:31.066Z,102774.88
2023-05-05T03:02:00.741Z,102766.28
2023-05-05T03:04:35.102Z,102768.66
2023-05-05T03:07:06.982Z,102776.41
2023-05-05T03:09:38.164Z,102773.97
2023-05-05T03:12:07.333Z,102778.63
2023-05-05T03:14:46.072Z,102783.47
2023-05-05T03:17:17.497Z,102783.78
2023-05-05T03:19:46.934Z,102780.56
2023-05-05T03:22:14.393Z,102783.94
2023-05-05T03:24:49.709Z,102783.50
2023-05-05T03:27:17.065Z,102790.72
2023-05-05T03:29:44.325Z,102794.31
2023-05-05T03:32:14.565Z,102805.75
2023-05-05T03:34:42.730Z,102801.38
2023-05-05T03:37:10.130Z,102802.41
2023-05-05T03:39:38.907Z,102799.91
2023-05-05T03:42:07.291Z,102805.44
2023-05-05T03:44:35.896Z,102810.06
2023-05-05T03:47:03.295Z,102809.38
2023-05-05T03:49:32.868Z,102805.81
2023-05-05T03:52:00.800Z,102804.44
2023-05-05T03:54:28.825Z,102814.81
2023-05-05T03:56:56.614Z,102816.25
2023-05-05T03:59:23.768Z,102819.78
2023-05-05T04:01:51.211Z,102819.88
2023-05-05T04:04:18.448Z,102823.28
2023-05-05T04:06:46.057Z,102822.88
2023-05-05T04:09:14.657Z,102816.88
2023-05-05T04:11:43.538Z,102827.94
2023-05-05T04:14:11.432Z,102820.59
2023-05-05T04:16:38.799Z,102831.06
2023-05-05T04:19:06.036Z,102837.59
2023-05-05T04:21:33.497Z,102830.44
2023-05-05T04:24:01.328Z,102842.22
2023-05-05T04:26:28.685Z,102838.88
2023-05-05T04:28:56.377Z,102840.31
2023-05-05T04:31:23.935Z,102840.47
2023-05-05T04:33:51.688Z,102843.75
2023-05-05T04:36:19.350Z,102845.44
2023-05-05T04:38:47.843Z,102842.84
2023-05-05T04:41:15.031Z,102845.63
2023-05-05T04:43:43.904Z,102840.84
2023-05-05T04:46:11.284Z,102850.84
2023-05-05T04:48:39.014Z,102855.38
2023-05-05T04:51:07.710Z,102854.25
2023-05-05T04:53:36.194Z,102852.53
2023-05-05T04:56:03.594Z,102856.09
2023-05-05T04:58:31.245Z,102863.50
2023-05-05T05:00:58.835Z,102866.56
2023-05-05T05:03:26.410Z,102869.34
2023-05-05T05:05:54.245Z,102871.06
2023-05-05T05:08:21.605Z,102870.56
2023-05-05T05:10:48.890Z,102869.22
2023-05-05T05:13:17.247Z,102884.13
2023-05-05T05:15:45.202Z,102883.28
2023-05-05T05:18:12.792Z,102882.47
2023-05-05T05:20:40.066Z,102879.03
2023-05-05T05:23:07.493Z,102884.22
2023-05-05T05:25:38.640Z,102881.00
2023-05-05T05:28:09.513Z,102884.78
2023-05-05T05:30:42.045Z,102878.00
2023-05-05T05:33:11.061Z,102885.84
2023-05-05T05:35:39.700Z,102881.28
2023-05-05T05:38:07.388Z,102886.66
2023-05-05T05:40:34.593Z,102883.97
2023-05-05T05:43:03.245Z,102884.22
2023-05-05T05:45:31.426Z,102882.44
2023-05-05T05:47:58.794Z,102869.84
2023-05-05T05:50:28.662Z,102876.09
2023-05-05T05:52:57.072Z,102881.69
2023-05-05T05:55:25.289Z,102880.91
2023-05-05T05:57:53.253Z,102884.50
2023-05-05T06:00:21.295Z,102878.91
2023-05-05T06:02:55.501Z,102871.88
2023-05-05T06:05:26.190Z,102871.97
2023-05-05T06:07:53.916Z,102868.78
2023-05-05T06:10:27.937Z,102874.22
2023-05-05T06:13:01.615Z,102868.44
2023-05-05T06:15:30.424Z,102877.38
2023-05-05T06:17:57.886Z,102865.53
2023-05-05T06:20:25.248Z,102876.72
2023-05-05T06:22:52.778Z,102872.22
2023-05-05T06:25:20.275Z,102878.38
2023-05-05T06:27:49.315Z,102881.34
2023-05-05T06:30:16.582Z,102870.19
2023-05-05T06:32:43.841Z,102883.81
2023-05-05T06:35:11.190Z,102878.41
2023-05-05T06:37:38.458Z,102881.25
2023-05-05T06:40:06.949Z,102876.97
2023-05-05T06:42:34.356Z,102874.88
2023-05-05T06:45:04.541Z,102879.66
2023-05-05T06:47:31.713Z,102871.84
2023-05-05T06:49:59.002Z,102887.63
2023-05-05T06:52:26.355Z,102876.03
2023-05-05T06:54:53.506Z,102878.16
2023-05-05T06:57:20.828Z,102879.84
2023-05-05T06:59:48.025Z,102875.81
2023-05-05T07:02:15.224Z,102867.88
2023-05-05T07:04:42.751Z,102876.38
2023-05-05T07:07:09.894Z,102876.34
2023-05-05T07:09:37.059Z,102880.31
2023-05-05T07:12:04.511Z,102887.06
2023-05-05T07:14:31.668Z,102883.09
2023-05-05T07:16:58.880Z,102878.78
2023-05-05T07:19:26.080Z,102877.03
2023-05-05T07:21:53.404Z,102875.13
2023-05-05T07:24:20.701Z,102881.50
2023-05-05T07:26:47.917Z,102878.47
2023-05-05T07:29:15.071Z,102876.75
2023-05-05T07:31:42.398Z,102869.97
2023-05-05T07:34:09.650Z,102872.91
2023-05-05T07:36:36.923Z,102867.53
2023-05-05T07:39:04.140Z,102867.25
2023-05-05T07:41:31.310Z,102864.78
2023-05-05T07:43:58.580Z,102861.84
2023-05-05T07:46:25.829Z,102871.53
2023-05-05T07:48:53.179Z,102852.47
2023-05-05T07:51:21.558Z,102860.94
2023-05-05T07:53:48.744Z,102855.91
2023-05-05T07:56:16.010Z,102856.75
2023-05-05T07:58:43.265Z,102866.09
2023-05-05T08:01:11.351Z,102864.13
2023-05-05T08:03:38.753Z,102854.88
2023-05-05T08:06:07.672Z,102858.97
2023-05-05T08:08:34.847Z,102873.72
2023-05-05T08:11:02.455Z,102874.50
2023-05-05T08:13:30.463Z,102879.53
2023-05-05T08:15:57.680Z,102870.22
2023-05-05T08:18:25.069Z,102870.81
2023-05-05T08:20:53.074Z,102878.56
2023-05-05T08:23:20.326Z,102869.44
2023-05-05T08:25:47.557Z,102866.50
2023-05-05T08:28:14.821Z,102875.03
2023-05-05T08:30:42.996Z,102871.31
2023-05-05T08:33:10.373Z,102862.22
2023-05-05T08:35:37.730Z,102853.28
2023-05-05T08:38:05.021Z,102861.88
2023-05-05T08:40:36.556Z,102859.66
2023-05-05T08:43:04.057Z,102870.63
2023-05-05T08:45:31.804Z,102860.31
2023-05-05T08:48:03.163Z,102857.75
2023-05-05T08:50:31.031Z,102868.34
2023-05-05T08:53:18.518Z,102859.03
2023-05-05T08:55:50.064Z,102867.97
2023-05-05T08:58:21.358Z,102864.63
2023-05-05T09:00:50.068Z,102872.09
2023-05-05T09:03:17.761Z,102865.38
2023-05-05T09:05:45.140Z,102869.72
2023-05-05T09:08:12.390Z,102865.34
2023-05-05T09:10:43.278Z,102864.75
2023-05-05T09:13:10.902Z,102859.50
2023-05-05T09:15:58.452Z,102859.03
2023-05-05T09:18:26.249Z,102860.69
2023-05-05T09:20:53.560Z,102856.66
2023-05-05T09:23:21.480Z,102855.63
2023-05-05T09:26:04.429Z,102866.22
2023-05-05T09:28:32.153Z,102865.72
2023-05-05T09:31:12.331Z,102867.16
2023-05-05T09:33:39.715Z,102868.25
2023-05-05T09:36:06.929Z,102859.94
2023-05-05T09:38:34.795Z,102868.06
2023-05-05T09:41:02.040Z,102851.22
2023-05-05T09:43:29.224Z,102854.78
2023-05-05T09:46:08.704Z,102861.72
2023-05-05T09:48:36.162Z,102856.50
2023-05-05T09:51:03.926Z,102855.44
2023-05-05T09:53:38.397Z,102858.06
2023-05-05T09:56:05.918Z,102855.84
2023-05-05T09:58:33.226Z,102853.53
2023-05-05T10:01:00.801Z,102856.09
2023-05-05T10:03:28.015Z,102844.03
2023-05-05T10:05:56.529Z,102851.69
2023-05-05T10:08:25.103Z,102856.88
2023-05-05T10:10:52.555Z,102845.63
2023-05-05T10:13:21.064Z,102847.38
2023-05-05T10:15:50.181Z,102841.84
2023-05-05T10:18:22.192Z,102840.41
2023-05-05T10:20:53.221Z,102858.38
2023-05-05T10:23:22.816Z,102853.97
2023-05-05T10:25:52.172Z,102858.06
2023-05-05T10:28:23.340Z,102846.00
2023-05-05T10:30:53.738Z,102854.88
2023-05-05T10:35:53.637Z,102845.31
2023-05-05T10:38:21.301Z,102841.28
2023-05-05T10:40:48.917Z,102829.31
2023-05-05T10:43:17.088Z,102832.56
2023-05-05T10:45:44.802Z,102832.88
2023-05-05T10:48:14.284Z,102828.28
2023-05-05T10:50:44.957Z,102832.66
2023-05-05T10:53:28.331Z,102818.06
2023-05-05T10:56:11.037Z,102820.94
2023-05-05T10:58:55.639Z,102817.38
2023-05-05T11:01:31.303Z,102826.69
2023-05-05T11:04:37.245Z,102818.53
2023-05-05T11:07:13.813Z,102813.63
2023-05-05T11:10:14.391Z,102817.13
2023-05-05T11:13:03.153Z,102809.44
2023-05-05T11:15:30.634Z,102810.06
2023-05-05T11:17:58.559Z,102796.91
2023-05-05T11:20:39.674Z,102802.88
2023-05-05T11:23:07.223Z,102805.13
2023-05-05T11:25:34.508Z,102803.22
2023-05-05T11:28:08.334Z,102808.84
2023-05-05T11:30:36.293Z,102803.91
2023-05-05T11:33:22.429Z,102789.56
2023-05-05T11:35:56.357Z,102794.97
2023-05-05T11:38:38.888Z,102799.44
2023-05-05T11:41:12.447Z,102790.50
2023-05-05T11:43:42.858Z,102800.38
2023-05-05T11:46:16.860Z,102794.16
2023-05-05T11:48:46.091Z,102797.81
2023-05-05T11:51:13.976Z,102803.91
2023-05-05T11:53:45.140Z,102787.97
2023-05-05T11:56:18.826Z,102797.00
2023-05-05T11:58:46.827Z,102787.03
2023-05-05T12:01:14.586Z,102777.16
2023-05-05T12:03:42.202Z,102788.28
2023-05-05T12:06:09.549Z,102781.88
2023-05-05T12:08:37.631Z,102781.78
2023-05-05T12:11:05.508Z,102767.84
2023-05-05T12:13:32.706Z,102777.09
2023-05-05T12:16:13.084Z,102778.56
2023-05-05T12:18:40.898Z,102776.97
2023-05-05T12:21:34.360Z,102778.56
2023-05-05T12:24:01.639Z,102779.00
2023-05-05T12:26:30.149Z,102774.44
2023-05-05T12:28:58.038Z,102774.13
2023-05-05T12:31:37.990Z,102773.47
2023-05-05T12:34:06.440Z,102766.31
2023-05-05T12:36:34.123Z,102765.50
2023-05-05T12:39:01.739Z,102763.28
2023-05-05T12:41:28.977Z,102765.84
2023-05-05T12:43:59.517Z,102754.16
2023-05-05T12:46:27.340Z,102744.63
2023-05-05T12:49:05.409Z,102755.19
2023-05-05T12:51:33.694Z,102748.91
2023-05-05T12:54:02.326Z,102747.59
2023-05-05T12:56:35.672Z,102741.13
2023-05-05T12:59:03.964Z,102752.28
2023-05-05T13:01:31.374Z,102739.31
2023-05-05T13:04:12.196Z,102739.22
2023-05-05T13:06:40.263Z,102737.78
2023-05-05T13:09:07.785Z,102739.69
2023-05-05T13:11:36.379Z,102734.06
2023-05-05T13:14:03.844Z,102743.19
2023-05-05T13:16:31.292Z,102742.09
2023-05-05T13:18:58.473Z,102741.28
2023-05-05T13:21:26.104Z,102742.53
2023-05-05T13:23:53.958Z,102741.34
2023-05-05T13:26:21.445Z,102733.81
2023-05-05T13:28:48.990Z,102737.47
2023-05-05T13:31:16.391Z,102732.84
2023-05-05T13:33:43.752Z,102740.56
2023-05-05T13:36:10.955Z,102741.94
2023-05-05T13:38:38.245Z,102735.00
2023-05-05T13:41:05.506Z,102735.88
2023-05-05T13:43:32.757Z,102737.31
2023-05-05T13:46:12.302Z,102732.84
2023-05-05T13:48:43.683Z,102738.88
2023-05-05T13:51:11.236Z,102728.19
2023-05-05T13:53:39.948Z,102731.72
2023-05-05T13:56:07.472Z,102721.84
2023-05-05T13:58:37.173Z,102736.97
2023-05-05T14:01:04.865Z,102733.91
2023-05-05T14:03:32.083Z,102724.41
2023-05-05T14:05:59.815Z,102722.13
2023-05-05T14:08:27.392Z,102724.47
2023-05-05T14:10:54.644Z,102727.38
2023-05-05T14:13:21.836Z,102720.25
2023-05-05T14:15:50.750Z,102737.25
2023-05-05T14:18:17.924Z,102731.41
2023-05-05T14:20:45.115Z,102724.03
2023-05-05T14:23:12.265Z,102732.34
2023-05-05T14:25:39.424Z,102729.34
2023-05-05T14:28:07.222Z,102731.28
2023-05-05T14:30:34.431Z,102721.22
2023-05-05T14:33:01.661Z,102717.94
2023-05-05T14:35:29.200Z,102717.41
2023-05-05T14:37:56.400Z,102716.09
2023-05-05T14:40:23.683Z,102712.28
2023-05-05T14:42:51.139Z,102726.00
2023-05-05T14:45:18.397Z,102718.03
2023-05-05T14:47:45.600Z,102719.09
2023-05-05T14:50:14.249Z,102718.63
2023-05-05T14:52:41.543Z,102718.63
2023-05-05T14:55:09.260Z,102712.06
2023-05-05T14:57:38.312Z,102721.53
2023-05-05T15:00:08.501Z,102709.22
2023-05-05T15:02:35.878Z,102716.13
2023-05-05T15:05:03.294Z,102704.50
2023-05-05T15:07:30.726Z,102702.03
2023-05-05T15:09:57.878Z,102699.34
2023-05-05T15:12:26.085Z,102697.13
2023-05-05T15:14:53.265Z,102709.69
2023-05-05T15:17:20.494Z,102708.81
2023-05-05T15:19:47.736Z,102711.19
2023-05-05T15:22:14.948Z,102710.19
2023-05-05T15:24:42.203Z,102703.22
2023-05-05T15:27:09.450Z,102708.16
2023-05-05T15:29:36.764Z,102714.53
2023-05-05T15:32:04.109Z,102713.25
2023-05-05T15:34:31.425Z,102713.03
2023-05-05T15:36:58.634Z,102713.38
2023-05-05T15:39:25.844Z,102714.53
2023-05-05T15:41:53.035Z,102712.63
2023-05-05T15:44:20.322Z,102709.91
2023-05-05T15:46:50.237Z,102712.94
2023-05-05T15:49:17.746Z,102716.59
2023-05-05T15:51:44.939Z,102713.25
2023-05-05T15:54:12.190Z,102705.91
2023-05-05T15:56:39.458Z,102707.69
2023-05-05T15:59:07.138Z,102707.19
2023-05-05T16:01:36.340Z,102698.84
2023-05-05T16:04:03.743Z,102708.13
2023-05-05T16:06:31.036Z,102722.16
2023-05-05T16:08:58.764Z,102714.03
2023-05-05T16:11:26.644Z,102707.63
2023-05-05T16:13:53.911Z,102714.34
2023-05-05T16:16:21.331Z,102719.63
2023-05-05T16:18:48.631Z,102712.56
2023-05-05T16:21:15.834Z,102708.31
2023-05-05T16:23:43.446Z,102708.06
2023-05-05T16:26:10.637Z,102706.53
2023-05-05T16:28:38.055Z,102697.69
2023-05-05T16:31:05.565Z,102709.78
2023-05-05T16:33:32.757Z,102711.09
2023-05-05T16:35:59.945Z,102706.56
2023-05-05T16:38:27.170Z,102699.31
2023-05-05T16:40:54.422Z,102707.91
2023-05-05T16:43:21.575Z,102697.53
2023-05-05T16:45:48.772Z,102700.19
2023-05-05T16:48:17.607Z,102696.69
2023-05-05T16:50:45.066Z,102700.84
2023-05-05T16:53:12.331Z,102698.03
2023-05-05T16:55:39.541Z,102710.53
2023-05-05T16:58:06.805Z,102700.78
2023-05-05T17:00:34.184Z,102710.88
2023-05-05T17:03:01.383Z,102707.38
2023-05-05T17:05:28.664Z,102709.22
2023-05-05T17:07:55.903Z,102715.28
2023-05-05T17:10:23.339Z,102706.22
2023-05-05T17:12:50.625Z,102710.84
2023-05-05T17:15:17.924Z,102716.28
2023-05-05T17:17:45.187Z,102719.91
2023-05-05T17:20:12.714Z,102718.34
2023-05-05T17:22:40.009Z,102726.47
2023-05-05T17:25:07.544Z,102725.53
2023-05-05T17:27:34.838Z,102728.84
2023-05-05T17:30:02.103Z,102730.13
2023-05-05T17:32:29.621Z,102735.25
2023-05-05T17:34:57.022Z,102733.47
2023-05-05T17:37:24.204Z,102736.50
2023-05-05T17:39:51.425Z,102744.94
2023-05-05T17:42:22.856Z,102740.63
2023-05-05T17:44:50.253Z,102741.38
2023-05-05T17:47:22.251Z,102750.06
2023-05-05T17:49:49.885Z,102751.63
2023-05-05T17:52:17.124Z,102747.97
2023-05-05T17:54:44.392Z,102752.88
2023-05-05T17:57:12.704Z,102749.88
2023-05-05T17:59:39.895Z,102756.41
2023-05-05T18:02:07.279Z,102750.94
2023-05-05T18:04:36.193Z,102757.69
2023-05-05T18:07:03.565Z,102762.88
2023-05-05T18:09:31.318Z,102769.97
2023-05-05T18:11:58.495Z,102774.75
2023-05-05T18:14:25.834Z,102776.16
2023-05-05T18:16:53.096Z,102765.56
2023-05-05T18:19:21.276Z,102783.06
2023-05-05T18:21:48.988Z,102778.22
2023-05-05T18:24:20.524Z,102783.16
2023-05-05T18:26:50.007Z,102775.09
2023-05-05T18:29:21.724Z,102780.28
2023-05-05T18:31:51.929Z,102775.22
2023-05-05T18:34:20.578Z,102790.53
2023-05-05T18:36:47.940Z,102782.63
2023-05-05T18:39:15.336Z,102783.97
2023-05-05T18:41:42.563Z,102781.38
2023-05-05T18:44:10.446Z,102792.56
2023-05-05T18:46:37.728Z,102786.03
2023-05-05T18:49:05.115Z,102798.78
2023-05-05T18:51:32.376Z,102792.44
2023-05-05T18:54:00.898Z,102790.09
2023-05-05T18:56:28.176Z,102789.25
2023-05-05T18:58:55.704Z,102805.81
2023-05-05T19:01:23.473Z,102788.91
2023-05-05T19:03:50.781Z,102798.31
2023-05-05T19:06:18.126Z,102791.03
2023-05-05T19:08:45.648Z,102798.16
2023-05-05T19:11:14.818Z,102794.59
2023-05-05T19:13:42.493Z,102795.88
2023-05-05T19:16:11.280Z,102801.91
2023-05-05T19:18:39.293Z,102801.50
2023-05-05T19:21:06.549Z,102807.22
2023-05-05T19:23:36.039Z,102814.50
2023-05-05T19:26:06.056Z,102804.06
2023-05-05T19:28:33.385Z,102805.16
2023-05-05T19:31:00.690Z,102814.88
2023-05-05T19:33:27.999Z,102807.06
2023-05-05T19:35:55.354Z,102812.50
2023-05-05T19:38:22.692Z,102814.88
2023-05-05T19:40:50.503Z,102813.47
2023-05-05T19:43:17.660Z,102819.03
2023-05-05T19:45:44.941Z,102814.19
2023-05-05T19:48:12.187Z,102820.63
2023-05-05T19:50:39.486Z,102811.22
2023-05-05T19:53:06.713Z,102818.72
2023-05-05T19:55:33.893Z,102820.50
2023-05-05T19:58:01.113Z,102829.22
2023-05-05T20:00:28.428Z,102826.69
2023-05-05T20:02:55.655Z,102836.63
2023-05-05T20:05:22.871Z,102835.78
2023-05-05T20:07:50.592Z,102832.97
2023-05-05T20:10:17.981Z,102840.19
2023-05-05T20:12:48.461Z,102838.78
2023-05-05T20:15:19.082Z,102842.56
2023-05-05T20:17:46.989Z,102841.97
2023-05-05T20:20:18.850Z,102839.34
2023-05-05T20:22:46.682Z,102851.53
2023-05-05T20:25:16.098Z,102849.34
2023-05-05T20:27:43.764Z,102848.75
2023-05-05T20:30:12.035Z,102859.69
2023-05-05T20:32:39.567Z,102852.44
2023-05-05T20:35:07.488Z,102857.19
2023-05-05T20:37:34.689Z,102859.22
2023-05-05T20:40:01.907Z,102867.16
2023-05-05T20:42:29.862Z,102862.84
2023-05-05T20:44:57.225Z,102868.00
2023-05-05T20:47:24.929Z,102861.44
2023-05-05T20:49:52.544Z,102865.69
2023-05-05T20:52:19.937Z,102842.19
2023-05-05T20:54:47.092Z,102864.13
2023-05-05T20:57:14.286Z,102854.66
2023-05-05T20:59:41.610Z,102862.69
2023-05-05T21:02:09.138Z,102869.44
2023-05-05T21:04:36.416Z,102852.94
2023-05-05T21:07:03.631Z,102862.97
2023-05-05T21:09:31.573Z,102863.94
2023-05-05T21:11:58.910Z,102858.44
2023-05-05T21:14:26.167Z,102855.53
2023-05-05T21:16:53.387Z,102857.94
2023-05-05T21:19:21.290Z,102873.41
2023-05-05T21:21:48.620Z,102864.19
2023-05-05T21:24:15.832Z,102873.63
2023-05-05T21:26:44.234Z,102872.25
2023-05-05T21:29:11.699Z,102871.69
2023-05-05T21:31:39.006Z,102869.75
2023-05-05T21:34:06.218Z,102882.69
2023-05-05T21:36:34.063Z,102876.78
2023-05-05T21:39:01.346Z,102882.63
2023-05-05T21:41:28.478Z,102874.63
2023-05-05T21:43:55.814Z,102885.84
2023-05-05T21:46:23.214Z,102879.50
2023-05-05T21:48:50.513Z,102881.09
2023-05-05T21:51:17.730Z,102880.16
2023-05-05T21:53:44.906Z,102880.47
2023-05-05T21:56:12.058Z,102881.34
2023-05-05T21:58:41.069Z,102878.91
2023-05-05T22:01:08.285Z,102885.66
2023-05-05T22:03:36.173Z,102886.78
2023-05-05T22:06:03.449Z,102894.56
2023-05-05T22:08:30.661Z,102886.94
2023-05-05T22:10:57.840Z,102890.84
2023-05-05T22:13:25.077Z,102887.22
2023-05-05T22:15:52.283Z,102889.69
2023-05-05T22:18:19.532Z,102886.66
2023-05-05T22:20:47.061Z,102887.06
2023-05-05T22:23:14.316Z,102886.03
2023-05-05T22:25:41.587Z,102889.47
2023-05-05T22:28:08.849Z,102886.41
2023-05-05T22:30:36.119Z,102887.09
2023-05-05T22:33:03.785Z,102895.19
2023-05-05T22:35:31.252Z,102895.09
2023-05-05T22:37:59.471Z,102890.94
2023-05-05T22:40:26.621Z,102896.81
2023-05-05T22:42:53.835Z,102890.41
2023-05-05T22:45:21.931Z,102900.38
2023-05-05T22:47:49.564Z,102886.56
2023-05-05T22:50:16.771Z,102906.78
2023-05-05T22:52:44.097Z,102897.81
2023-05-05T22:55:14.076Z,102901.56
2023-05-05T22:57:41.888Z,102894.41
2023-05-05T23:00:10.583Z,102898.50
2023-05-05T23:02:37.962Z,102905.13
2023-05-05T23:05:05.457Z,102902.09
2023-05-05T23:07:32.764Z,102896.50
2023-05-05T23:10:00.002Z,102904.88
2023-05-05T23:12:27.193Z,102905.97
2023-05-05T23:14:54.415Z,102901.63
2023-05-05T23:17:21.735Z,102908.63
2023-05-05T23:19:49.466Z,102904.75
2023-05-05T23:22:16.712Z,102900.66
2023-05-05T23:24:43.862Z,102892.75
2023-05-05T23:27:12.884Z,102901.41
2023-05-05T23:29:40.103Z,102891.97
2023-05-05T23:32:07.401Z,102860.97
2023-05-05T23:34:34.553Z,102897.97
2023-05-05T23:37:02.541Z,102885.63
2023-05-05T23:39:33.054Z,102886.56
2023-05-05T23:42:00.266Z,102892.38
2023-05-05T23:44:27.792Z,102890.56
2023-05-05T23:46:55.029Z,102884.63
2023-05-05T23:49:23.823Z,102888.53
2023-05-05T23:51:51.008Z,102884.53
2023-05-05T23:54:18.486Z,102887.09
2023-05-05T23:56:47.801Z,102883.22
2023-05-05T23:59:15.013Z,102870.06
